createdAt,value
2019-05-12T00:01:09.151Z,1.63
2019-05-12T00:03:43.029Z,1.63
2019-05-12T00:06:13.535Z,1.60
2019-05-12T00:08:44.045Z,1.63
2019-05-12T00:11:14.648Z,1.70
2019-05-12T00:13:45.137Z,1.87
2019-05-12T00:16:17.570Z,2.00
2019-05-12T00:18:48.304Z,2.00
2019-05-12T00:21:19.073Z,2.37
2019-05-12T00:24:08.673Z,2.93
2019-05-12T00:26:40.731Z,2.20
2019-05-12T00:29:11.219Z,2.83
2019-05-12T00:31:41.669Z,3.03
2019-05-12T00:34:12.175Z,3.07
2019-05-12T00:36:42.713Z,3.20
2019-05-12T00:39:13.216Z,3.17
2019-05-12T00:41:44.519Z,3.30
2019-05-12T00:44:18.163Z,3.70
2019-05-12T00:46:48.755Z,3.37
2019-05-12T00:49:21.501Z,3.80
2019-05-12T00:51:52.001Z,4.00
2019-05-12T00:54:22.631Z,2.77
2019-05-12T00:56:53.105Z,2.67
2019-05-12T00:59:23.587Z,2.60
2019-05-12T01:01:54.151Z,2.80
2019-05-12T01:04:24.675Z,2.37
2019-05-12T01:06:58.248Z,2.27
2019-05-12T01:09:28.933Z,2.40
2019-05-12T01:11:59.619Z,2.50
2019-05-12T01:14:30.268Z,2.87
2019-05-12T01:17:00.709Z,3.10
2019-05-12T01:19:31.272Z,3.07
2019-05-12T01:22:01.730Z,2.93
2019-05-12T01:24:32.229Z,2.90
2019-05-12T01:27:02.713Z,2.77
2019-05-12T01:29:33.163Z,3.10
2019-05-12T01:32:11.327Z,2.53
2019-05-12T01:34:41.806Z,2.50
2019-05-12T01:37:24.311Z,1.90
2019-05-12T01:39:59.792Z,2.27
2019-05-12T01:42:28.697Z,2.40
2019-05-12T01:44:59.411Z,2.37
2019-05-12T01:47:30.657Z,3.07
2019-05-12T01:50:01.212Z,3.00
2019-05-12T01:52:31.702Z,2.40
2019-05-12T01:55:02.133Z,2.37
2019-05-12T01:57:32.599Z,2.30
2019-05-12T02:00:03.156Z,1.87
2019-05-12T02:02:33.658Z,2.30
2019-05-12T02:05:08.905Z,1.77
2019-05-12T02:07:44.840Z,1.73
2019-05-12T02:10:17.981Z,1.57
2019-05-12T02:12:49.260Z,1.90
2019-05-12T02:15:20.940Z,1.53
2019-05-12T02:17:51.444Z,1.63
2019-05-12T02:20:24.716Z,1.70
2019-05-12T02:22:55.217Z,1.50
2019-05-12T02:25:25.676Z,2.10
2019-05-12T02:27:58.413Z,1.90
2019-05-12T02:30:30.236Z,1.63
2019-05-12T02:33:00.733Z,1.73
2019-05-12T02:35:31.183Z,1.57
2019-05-12T02:38:04.700Z,1.50
2019-05-12T02:40:34.844Z,1.77
2019-05-12T02:43:06.024Z,1.40
2019-05-12T02:45:36.708Z,1.67
2019-05-12T02:48:07.555Z,1.63
2019-05-12T02:50:38.523Z,1.50
2019-05-12T02:53:09.373Z,1.60
2019-05-12T02:55:44.790Z,1.60
2019-05-12T02:58:17.009Z,1.67
2019-05-12T03:00:48.365Z,1.50
2019-05-12T03:03:24.921Z,1.43
2019-05-12T03:05:58.834Z,1.70
2019-05-12T03:08:34.808Z,1.40
2019-05-12T03:11:06.395Z,1.50
2019-05-12T03:13:36.925Z,1.60
2019-05-12T03:16:07.381Z,1.80
2019-05-12T03:18:38.060Z,1.70
2019-05-12T03:21:08.467Z,1.83
2019-05-12T03:23:39.099Z,1.47
2019-05-12T03:26:09.540Z,2.00
2019-05-12T03:28:40.053Z,1.60
2019-05-12T03:31:25.415Z,1.90
2019-05-12T03:33:59.626Z,1.93
2019-05-12T03:36:32.367Z,1.80
2019-05-12T03:38:57.650Z,1.93
2019-05-12T03:41:28.337Z,1.93
2019-05-12T03:43:58.807Z,1.93
2019-05-12T03:46:30.377Z,2.00
2019-05-12T03:49:04.892Z,2.17
2019-05-12T03:51:35.019Z,1.90
2019-05-12T03:54:05.603Z,1.90
2019-05-12T03:56:36.117Z,1.73
2019-05-12T03:59:07.196Z,1.97
2019-05-12T04:01:37.710Z,2.03
2019-05-12T04:04:08.421Z,2.00
2019-05-12T04:06:38.860Z,1.80
2019-05-12T04:09:10.526Z,1.73
2019-05-12T04:11:44.233Z,1.77
2019-05-12T04:14:14.763Z,1.53
2019-05-12T04:16:45.562Z,1.63
2019-05-12T04:19:16.199Z,1.63
2019-05-12T04:21:46.662Z,2.00
2019-05-12T04:24:17.147Z,1.97
2019-05-12T04:26:47.618Z,1.93
2019-05-12T04:29:18.245Z,1.97
2019-05-12T04:31:48.731Z,1.90
2019-05-12T04:34:25.046Z,1.63
2019-05-12T04:36:55.357Z,1.63
2019-05-12T04:39:26.391Z,1.70
2019-05-12T04:41:56.919Z,1.57
2019-05-12T04:44:27.706Z,1.70
2019-05-12T04:46:58.309Z,1.77
2019-05-12T04:49:29.881Z,1.80
2019-05-12T04:52:00.591Z,1.70
2019-05-12T04:54:31.111Z,1.60
2019-05-12T04:57:04.097Z,1.60
2019-05-12T04:59:34.471Z,1.60
2019-05-12T05:02:05.693Z,1.60
2019-05-12T05:04:36.436Z,1.40
2019-05-12T05:07:06.967Z,1.30
2019-05-12T05:09:37.477Z,1.40
2019-05-12T05:12:08.159Z,1.30
2019-05-12T05:14:38.650Z,1.53
2019-05-12T05:17:09.269Z,1.30
2019-05-12T05:19:39.741Z,1.43
2019-05-12T05:22:10.449Z,1.50
2019-05-12T05:24:40.963Z,1.03
2019-05-12T05:27:13.325Z,1.40
2019-05-12T05:29:43.962Z,1.30
2019-05-12T05:32:14.533Z,1.87
2019-05-12T05:34:52.869Z,1.43
2019-05-12T05:37:19.777Z,1.40
2019-05-12T05:39:53.960Z,1.70
2019-05-12T05:42:30.655Z,1.40
2019-05-12T05:44:57.085Z,1.73
2019-05-12T05:47:29.096Z,1.53
2019-05-12T05:49:59.671Z,1.57
2019-05-12T05:52:33.218Z,1.50
2019-05-12T05:55:05.729Z,1.47
2019-05-12T05:57:35.135Z,2.03
2019-05-12T06:00:20.178Z,1.40
2019-05-12T06:02:40.722Z,1.80
2019-05-12T06:05:14.262Z,2.50
2019-05-12T06:07:44.411Z,1.80
2019-05-12T06:10:15.460Z,1.60
2019-05-12T06:12:50.697Z,1.60
2019-05-12T06:15:18.271Z,1.63
2019-05-12T06:17:49.949Z,1.90
2019-05-12T06:20:20.460Z,1.50
2019-05-12T06:22:54.661Z,1.40
2019-05-12T06:25:26.541Z,1.70
2019-05-12T06:28:00.085Z,1.73
2019-05-12T06:30:28.434Z,1.97
2019-05-12T06:32:59.227Z,1.83
2019-05-12T06:35:30.984Z,1.40
2019-05-12T06:38:04.726Z,1.47
2019-05-12T06:40:40.714Z,1.60
2019-05-12T06:43:07.901Z,1.20
2019-05-12T06:45:42.502Z,1.40
2019-05-12T06:48:10.889Z,1.33
2019-05-12T06:50:41.337Z,1.87
2019-05-12T06:53:13.940Z,1.50
2019-05-12T06:55:44.179Z,1.70
2019-05-12T06:58:14.706Z,1.50
2019-05-12T07:00:45.696Z,1.33
2019-05-12T07:03:19.451Z,1.40
2019-05-12T07:05:48.516Z,1.40
2019-05-12T07:08:26.365Z,1.40
2019-05-12T07:11:01.800Z,1.57
2019-05-12T07:13:29.374Z,1.80
2019-05-12T07:15:59.583Z,2.20
2019-05-12T07:18:32.397Z,1.90
2019-05-12T07:21:04.129Z,1.83
2019-05-12T07:23:35.021Z,2.27
2019-05-12T07:26:17.588Z,1.90
2019-05-12T07:28:40.431Z,1.80
2019-05-12T07:31:14.078Z,1.80
2019-05-12T07:33:45.804Z,1.93
2019-05-12T07:36:18.347Z,1.87
2019-05-12T07:38:55.916Z,1.80
2019-05-12T07:41:27.592Z,1.90
2019-05-12T07:44:10.207Z,2.30
2019-05-12T07:46:47.728Z,2.20
2019-05-12T07:49:34.158Z,2.03
2019-05-12T07:51:55.986Z,2.40
2019-05-12T07:54:29.447Z,2.17
2019-05-12T07:57:03.777Z,2.63
2019-05-12T07:59:35.670Z,2.23
2019-05-12T08:02:04.020Z,3.30
2019-05-12T08:04:39.792Z,2.40
2019-05-12T08:07:06.789Z,3.10
2019-05-12T08:09:44.596Z,2.60
2019-05-12T08:12:20.673Z,2.63
2019-05-12T08:14:47.546Z,2.50
2019-05-12T08:17:24.655Z,2.80
2019-05-12T08:19:55.502Z,2.43
2019-05-12T08:22:29.371Z,3.10
2019-05-12T08:25:04.321Z,3.57
2019-05-12T08:27:39.089Z,3.00
2019-05-12T08:30:07.880Z,3.10
2019-05-12T08:32:39.724Z,3.20
2019-05-12T08:35:13.712Z,3.67
2019-05-12T08:37:44.280Z,3.60
2019-05-12T08:40:15.530Z,3.73
2019-05-12T08:42:48.680Z,3.80
2019-05-12T08:45:27.406Z,4.03
2019-05-12T08:47:54.634Z,3.50
2019-05-12T08:50:31.600Z,3.10
2019-05-12T08:52:59.075Z,4.10
2019-05-12T08:55:31.244Z,9.53
2019-05-12T08:58:03.900Z,4.03
2019-05-12T09:00:46.525Z,4.60
2019-05-12T09:03:20.511Z,3.93
2019-05-12T09:05:49.910Z,4.37
2019-05-12T09:08:21.054Z,4.23
2019-05-12T09:10:55.383Z,4.67
2019-05-12T09:13:24.888Z,4.63
2019-05-12T09:15:55.393Z,4.60
2019-05-12T09:18:33.934Z,4.50
2019-05-12T09:20:58.427Z,4.80
2019-05-12T09:23:32.773Z,4.30
2019-05-12T09:26:18.689Z,5.37
2019-05-12T09:28:50.295Z,15.20
2019-05-12T09:31:19.445Z,6.10
2019-05-12T09:33:51.935Z,5.53
2019-05-12T09:36:24.312Z,4.97
2019-05-12T09:39:01.633Z,4.80
2019-05-12T09:41:27.096Z,5.07
2019-05-12T09:43:57.849Z,4.60
2019-05-12T09:46:35.891Z,4.93
2019-05-12T09:49:04.067Z,4.70
2019-05-12T09:51:41.472Z,4.80
2019-05-12T09:54:09.166Z,4.53
2019-05-12T09:56:41.321Z,4.83
2019-05-12T09:59:19.079Z,4.13
2019-05-12T10:01:46.156Z,4.67
2019-05-12T10:04:19.698Z,5.67
2019-05-12T10:06:50.539Z,7.43
2019-05-12T10:09:21.127Z,6.20
2019-05-12T10:12:00.297Z,6.70
2019-05-12T10:14:26.053Z,5.73
2019-05-12T10:17:00.029Z,6.17
2019-05-12T10:19:30.697Z,6.27
2019-05-12T10:22:01.274Z,7.40
2019-05-12T10:24:40.567Z,7.47
2019-05-12T10:27:05.571Z,9.27
2019-05-12T10:29:37.197Z,8.37
2019-05-12T10:32:10.279Z,8.20
2019-05-12T10:34:40.571Z,7.80
2019-05-12T10:37:13.226Z,7.57
2019-05-12T10:39:44.457Z,7.27
2019-05-12T10:42:15.129Z,6.73
2019-05-12T10:44:45.703Z,6.90
2019-05-12T10:47:16.255Z,7.00
2019-05-12T10:49:46.963Z,7.50
2019-05-12T10:52:17.441Z,8.33
2019-05-12T10:54:53.724Z,7.40
2019-05-12T10:57:23.726Z,7.87
2019-05-12T10:59:54.465Z,9.10
2019-05-12T11:02:26.416Z,10.33
2019-05-12T11:04:57.435Z,9.50
2019-05-12T11:07:29.955Z,10.27
2019-05-12T11:10:15.139Z,10.30
2019-05-12T11:12:36.653Z,9.57
2019-05-12T11:15:09.599Z,11.40
2019-05-12T11:18:14.188Z,11.00
2019-05-12T11:20:45.086Z,10.77
2019-05-12T11:23:24.714Z,10.80
2019-05-12T11:25:56.591Z,12.67
2019-05-12T11:28:27.190Z,12.17
2019-05-12T11:30:57.527Z,11.43
2019-05-12T11:33:28.102Z,11.30
2019-05-12T11:35:58.706Z,11.40
2019-05-12T11:38:30.877Z,11.17
2019-05-12T11:41:04.124Z,11.40
2019-05-12T11:43:35.649Z,10.70
2019-05-12T11:46:07.305Z,11.17
2019-05-12T11:48:40.315Z,11.13
2019-05-12T11:51:14.305Z,10.47
2019-05-12T11:53:44.571Z,10.33
2019-05-12T11:56:15.076Z,12.10
2019-05-12T11:58:51.354Z,12.33
2019-05-12T12:01:24.274Z,12.13
2019-05-12T12:03:54.942Z,12.90
2019-05-12T12:06:25.655Z,14.50
2019-05-12T12:08:56.198Z,12.53
2019-05-12T12:11:28.116Z,12.43
2019-05-12T12:14:00.222Z,14.00
2019-05-12T12:16:34.129Z,14.63
2019-05-12T12:19:05.863Z,14.20
2019-05-12T12:21:40.394Z,14.70
2019-05-12T12:24:08.942Z,15.30
2019-05-12T12:26:39.859Z,12.30
2019-05-12T12:29:10.377Z,12.70
2019-05-12T12:31:52.139Z,12.33
2019-05-12T12:34:29.824Z,13.33
2019-05-12T12:36:56.188Z,12.53
2019-05-12T12:39:26.849Z,13.20
2019-05-12T12:42:00.565Z,12.30
2019-05-12T12:44:29.756Z,12.70
2019-05-12T12:47:01.832Z,10.87
2019-05-12T12:49:33.943Z,10.07
2019-05-12T12:52:05.201Z,10.53
2019-05-12T12:54:35.674Z,11.20
2019-05-12T12:57:09.807Z,11.93
2019-05-12T12:59:42.941Z,12.60
2019-05-12T13:02:14.159Z,13.30
2019-05-12T13:04:48.440Z,13.67
2019-05-12T13:07:16.500Z,14.13
2019-05-12T13:09:47.350Z,13.90
2019-05-12T13:12:19.784Z,15.07
2019-05-12T13:14:50.330Z,12.93
2019-05-12T13:17:20.952Z,12.57
2019-05-12T13:19:54.735Z,12.47
2019-05-12T13:22:24.508Z,11.97
2019-05-12T13:24:58.215Z,12.10
2019-05-12T13:27:34.688Z,11.80
2019-05-12T13:30:05.402Z,11.67
2019-05-12T13:32:37.989Z,12.67
2019-05-12T13:35:14.696Z,11.47
2019-05-12T13:37:43.294Z,12.00
2019-05-12T13:40:14.980Z,10.20
2019-05-12T13:42:45.465Z,10.20
2019-05-12T13:45:20.143Z,9.67
2019-05-12T13:47:53.057Z,9.60
2019-05-12T13:50:26.368Z,9.97
2019-05-12T13:53:01.242Z,9.07
2019-05-12T13:55:29.000Z,9.13
2019-05-12T13:57:59.558Z,9.50
2019-05-12T14:00:30.138Z,9.00
2019-05-12T14:03:04.569Z,8.60
2019-05-12T14:05:33.703Z,8.40
2019-05-12T14:08:04.425Z,8.13
2019-05-12T14:10:37.665Z,8.90
2019-05-12T14:13:11.154Z,8.97
2019-05-12T14:15:44.358Z,9.57
2019-05-12T14:18:16.473Z,9.10
2019-05-12T14:20:50.768Z,9.13
2019-05-12T14:23:20.239Z,9.07
2019-05-12T14:25:50.781Z,8.93
2019-05-12T14:28:24.558Z,9.20
2019-05-12T14:30:56.189Z,9.00
2019-05-12T14:33:29.939Z,9.90
2019-05-12T14:35:59.527Z,8.70
2019-05-12T14:38:30.137Z,9.40
2019-05-12T14:41:01.186Z,9.63
2019-05-12T14:43:34.092Z,11.17
2019-05-12T14:46:10.159Z,10.23
2019-05-12T14:48:40.275Z,10.77
2019-05-12T14:51:10.594Z,10.43
2019-05-12T14:53:44.448Z,8.73
2019-05-12T14:56:14.552Z,10.07
2019-05-12T14:58:50.278Z,9.50
2019-05-12T15:01:18.597Z,10.57
2019-05-12T15:03:50.565Z,10.13
2019-05-12T15:06:25.713Z,9.97
2019-05-12T15:08:54.900Z,9.17
2019-05-12T15:11:28.204Z,9.77
2019-05-12T15:13:59.133Z,9.10
2019-05-12T15:16:31.821Z,10.03
2019-05-12T15:19:09.586Z,9.53
2019-05-12T15:21:43.536Z,9.57
2019-05-12T15:24:15.234Z,10.30
2019-05-12T15:26:50.449Z,10.13
2019-05-12T15:32:00.551Z,10.70
2019-05-12T15:34:33.765Z,10.57
2019-05-12T15:37:06.360Z,14.40
2019-05-12T15:39:43.894Z,10.93
2019-05-12T15:42:33.671Z,10.73
2019-05-12T15:45:11.688Z,10.03
2019-05-12T15:47:40.902Z,10.20
2019-05-12T15:50:14.319Z,10.73
2019-05-12T15:52:45.478Z,10.43
2019-05-12T15:55:18.402Z,9.90
2019-05-12T15:57:50.845Z,11.67
2019-05-12T16:00:24.382Z,10.47
2019-05-12T16:02:54.273Z,11.63
2019-05-12T16:05:29.393Z,12.77
2019-05-12T16:07:57.581Z,14.33
2019-05-12T16:10:29.525Z,15.07
2019-05-12T16:13:02.542Z,15.23
2019-05-12T16:15:36.397Z,15.90
2019-05-12T16:18:09.888Z,15.33
2019-05-12T16:20:44.104Z,15.13
2019-05-12T16:23:23.821Z,15.23
2019-05-12T16:25:47.759Z,15.33
2019-05-12T16:28:23.384Z,13.63
2019-05-12T16:30:53.601Z,13.17
2019-05-12T16:33:26.646Z,14.40
2019-05-12T16:36:00.066Z,12.63
2019-05-12T16:38:31.058Z,11.40
2019-05-12T16:41:03.840Z,12.23
2019-05-12T16:43:35.363Z,12.17
2019-05-12T16:46:08.641Z,12.57
2019-05-12T16:48:42.297Z,12.60
2019-05-12T16:51:13.898Z,12.07
2019-05-12T16:53:44.598Z,12.67
2019-05-12T16:56:19.998Z,12.97
2019-05-12T16:58:54.190Z,12.17
2019-05-12T17:01:28.190Z,13.37
2019-05-12T17:04:00.820Z,12.60
2019-05-12T17:06:36.809Z,13.17
2019-05-12T17:09:06.396Z,12.40
2019-05-12T17:11:48.254Z,10.10
2019-05-12T17:14:10.241Z,10.60
2019-05-12T17:16:46.560Z,10.43
2019-05-12T17:19:15.466Z,9.87
2019-05-12T17:21:49.464Z,9.57
2019-05-12T17:24:24.046Z,10.13
2019-05-12T17:26:55.181Z,10.37
2019-05-12T17:29:25.867Z,9.90
2019-05-12T17:32:03.961Z,10.27
2019-05-12T17:34:34.194Z,10.40
2019-05-12T17:37:05.289Z,11.23
2019-05-12T17:39:39.089Z,12.30
2019-05-12T17:42:14.828Z,13.20
2019-05-12T17:44:44.972Z,14.17
2019-05-12T17:47:21.237Z,13.90
2019-05-12T17:49:50.782Z,13.63
2019-05-12T17:52:23.461Z,14.33
2019-05-12T17:55:04.546Z,25.33
2019-05-12T17:57:31.245Z,16.20
2019-05-12T18:00:06.285Z,15.90
2019-05-12T18:02:35.155Z,15.57
2019-05-12T18:05:07.609Z,13.20
2019-05-12T18:07:40.206Z,13.57
2019-05-12T18:10:13.539Z,11.37
2019-05-12T18:12:45.242Z,10.53
2019-05-12T18:15:25.675Z,10.83
2019-05-12T18:17:50.275Z,9.77
2019-05-12T18:20:24.726Z,10.33
2019-05-12T18:22:56.267Z,9.87
2019-05-12T18:25:32.113Z,12.00
2019-05-12T18:28:05.597Z,12.23
2019-05-12T18:30:37.683Z,13.20
2019-05-12T18:33:13.739Z,12.20
2019-05-12T18:35:44.937Z,13.97
2019-05-12T18:38:22.737Z,12.90
2019-05-12T18:40:54.896Z,13.43
2019-05-12T18:43:29.477Z,13.27
2019-05-12T18:46:05.534Z,12.90
2019-05-12T18:48:34.395Z,13.70
2019-05-12T18:51:11.779Z,13.50
2019-05-12T18:53:43.651Z,12.83
2019-05-12T18:56:21.758Z,12.77
2019-05-12T18:58:54.336Z,13.40
2019-05-12T19:01:33.413Z,11.87
2019-05-12T19:04:04.879Z,11.73
2019-05-12T19:06:37.151Z,10.73
2019-05-12T19:09:19.712Z,11.97
2019-05-12T19:12:15.776Z,11.30
2019-05-12T19:14:43.644Z,12.37
2019-05-12T19:17:24.552Z,13.43
2019-05-12T19:20:00.014Z,13.07
2019-05-12T19:22:30.502Z,13.67
2019-05-12T19:25:06.880Z,13.73
2019-05-12T19:27:45.721Z,14.00
2019-05-12T19:30:25.274Z,14.37
2019-05-12T19:33:10.372Z,13.43
2019-05-12T19:35:38.270Z,14.27
2019-05-12T19:38:15.551Z,14.97
2019-05-12T19:40:55.251Z,14.90
2019-05-12T19:43:23.765Z,14.73
2019-05-12T19:49:50.574Z,14.50
2019-05-12T19:52:24.395Z,14.47
2019-05-12T19:54:56.745Z,15.90
2019-05-12T19:57:33.633Z,16.70
2019-05-12T20:00:08.174Z,17.20
2019-05-12T20:02:40.393Z,16.43
2019-05-12T20:05:17.244Z,16.03
2019-05-12T20:07:49.846Z,15.83
2019-05-12T20:10:25.626Z,16.07
2019-05-12T20:12:57.128Z,16.87
2019-05-12T20:15:30.135Z,18.20
2019-05-12T20:18:04.101Z,19.17
2019-05-12T20:20:41.243Z,18.43
2019-05-12T20:23:07.367Z,17.17
2019-05-12T20:25:38.446Z,17.47
2019-05-12T20:28:11.271Z,17.17
2019-05-12T20:30:43.650Z,17.70
2019-05-12T20:33:17.174Z,18.80
2019-05-12T20:35:49.481Z,21.17
2019-05-12T20:38:25.486Z,22.17
2019-05-12T20:40:54.098Z,21.53
2019-05-12T20:43:32.398Z,20.93
2019-05-12T20:45:57.541Z,21.67
2019-05-12T20:48:31.095Z,21.33
2019-05-12T20:51:03.503Z,21.20
2019-05-12T20:53:36.734Z,21.03
2019-05-12T20:56:06.687Z,23.33
2019-05-12T20:58:43.682Z,24.80
2019-05-12T21:01:10.241Z,25.53
2019-05-12T21:03:49.063Z,26.47
2019-05-12T21:06:18.256Z,25.53
2019-05-12T21:08:53.508Z,24.67
2019-05-12T21:11:21.109Z,25.63
2019-05-12T21:13:54.362Z,25.67
2019-05-12T21:16:31.256Z,27.63
2019-05-12T21:19:08.942Z,26.50
2019-05-12T21:21:36.307Z,27.80
2019-05-12T21:24:05.039Z,25.50
2019-05-12T21:26:37.908Z,24.70
2019-05-12T21:29:08.646Z,24.90
2019-05-12T21:31:46.210Z,24.03
2019-05-12T21:34:21.013Z,23.00
2019-05-12T21:36:49.958Z,22.57
2019-05-12T21:39:21.519Z,22.90
2019-05-12T21:41:54.751Z,21.57
2019-05-12T21:44:24.628Z,22.60
2019-05-12T21:47:03.630Z,23.77
2019-05-12T21:49:29.196Z,23.27
2019-05-12T21:52:05.851Z,21.83
2019-05-12T21:54:35.973Z,21.70
2019-05-12T21:57:05.188Z,21.43
2019-05-12T21:59:39.521Z,21.93
2019-05-12T22:02:08.416Z,22.17
2019-05-12T22:04:43.550Z,22.60
2019-05-12T22:07:14.576Z,19.63
2019-05-12T22:09:46.816Z,18.07
2019-05-12T22:12:17.050Z,16.17
2019-05-12T22:14:47.720Z,16.57
2019-05-12T22:17:18.232Z,16.53
2019-05-12T22:19:48.855Z,16.23
2019-05-12T22:22:24.608Z,15.50
2019-05-12T22:24:53.750Z,15.87
2019-05-12T22:27:27.117Z,15.73
2019-05-12T22:29:57.287Z,15.43
2019-05-12T22:32:29.705Z,17.57
2019-05-12T22:35:00.372Z,16.47
2019-05-12T22:37:34.890Z,15.00
2019-05-12T22:40:06.291Z,15.23
2019-05-12T22:42:36.223Z,15.47
2019-05-12T22:45:07.245Z,15.10
2019-05-12T22:47:38.039Z,14.73
2019-05-12T22:50:08.921Z,14.03
2019-05-12T22:52:47.247Z,15.13
2019-05-12T22:55:14.015Z,14.93
2019-05-12T22:57:44.729Z,14.60
2019-05-12T23:00:19.226Z,14.63
2019-05-12T23:02:53.665Z,15.20
2019-05-12T23:05:24.281Z,15.47
2019-05-12T23:07:54.751Z,15.60
2019-05-12T23:10:25.258Z,16.03
2019-05-12T23:13:01.389Z,15.63
2019-05-12T23:15:27.989Z,16.07
2019-05-12T23:17:58.631Z,16.63
2019-05-12T23:20:30.946Z,16.47
2019-05-12T23:23:03.665Z,18.27
2019-05-12T23:25:33.840Z,20.60
2019-05-12T23:28:08.517Z,19.57
2019-05-12T23:30:43.703Z,19.07
2019-05-12T23:33:14.134Z,18.93
2019-05-12T23:35:44.457Z,18.00
2019-05-12T23:38:18.814Z,17.50
2019-05-12T23:40:47.108Z,17.63
2019-05-12T23:43:17.816Z,17.47
2019-05-12T23:45:48.306Z,17.70
2019-05-12T23:48:18.905Z,17.33
2019-05-12T23:50:49.499Z,19.10
2019-05-12T23:53:21.259Z,18.80
2019-05-12T23:55:54.011Z,18.20
2019-05-12T23:58:25.428Z,19.53
